Time;durP1;ratioP1;P1;durP2;ratioP2;P2;SDS_P1;SDS_P2;PMS_P1;PMS_P2;Temp;Humidity;BMP_temperature;BMP_pressure;BME280_temperature;BME280_humidity;BME280_pressure;Samples;Min_cycle;Max_cycle;Signal;HPM_P1;HPM_P2
2022/04/17 00:01:54;;;;;;;3.50;2.60;;;;;;;;;;5024563;28;20188;-72
2022/04/17 00:04:19;;;;;;;3.17;2.83;;;;;;;;;;5020208;28;20198;-73
2022/04/17 00:06:44;;;;;;;3.60;2.87;;;;;;;;;;5025643;28;20248;-73
2022/04/17 00:09:10;;;;;;;4.83;2.90;;;;;;;;;;5019066;28;20290;-73
2022/04/17 00:11:35;;;;;;;3.20;2.90;;;;;;;;;;5027140;28;20211;-72
2022/04/17 00:14:01;;;;;;;4.30;3.10;;;;;;;;;;5017594;28;20186;-73
2022/04/17 00:16:26;;;;;;;2.90;2.67;;;;;;;;;;5030611;28;20229;-72
2022/04/17 00:18:51;;;;;;;3.47;3.00;;;;;;;;;;5022938;28;20188;-73
2022/04/17 00:21:16;;;;;;;3.30;2.90;;;;;;;;;;5016281;28;20252;-72
2022/04/17 00:23:44;;;;;;;3.13;2.83;;;;;;;;;;5032662;28;20186;-73
2022/04/17 00:26:09;;;;;;;3.13;2.83;;;;;;;;;;5019133;28;20215;-73
2022/04/17 00:28:34;;;;;;;3.10;2.80;;;;;;;;;;5032799;28;20260;-73
2022/04/17 00:30:59;;;;;;;4.73;3.07;;;;;;;;;;5015450;28;20195;-72
2022/04/17 00:33:25;;;;;;;3.23;2.93;;;;;;;;;;5020275;28;20451;-72
2022/04/17 00:35:50;;;;;;;3.00;2.70;;;;;;;;;;5019750;28;20181;-73
2022/04/17 00:38:15;;;;;;;3.83;3.00;;;;;;;;;;5017526;28;20244;-73
2022/04/17 00:40:40;;;;;;;3.00;2.70;;;;;;;;;;5045667;28;20190;-73
2022/04/17 00:43:22;;;;;;;3.30;2.50;;;;;;;;;;5027794;28;20196;-73
2022/04/17 00:45:47;;;;;;;3.00;2.67;;;;;;;;;;5039421;28;20277;-72
2022/04/17 00:48:12;;;;;;;3.73;2.63;;;;;;;;;;5025897;28;20271;-73
2022/04/17 00:50:37;;;;;;;3.13;2.55;;;;;;;;;;5027229;28;20195;-72
2022/04/17 00:53:02;;;;;;;3.23;2.93;;;;;;;;;;5030657;28;20231;-72
2022/04/17 00:55:27;;;;;;;3.07;2.77;;;;;;;;;;5026209;28;20172;-72
2022/04/17 00:57:53;;;;;;;2.63;2.43;;;;;;;;;;5030114;28;20243;-72
2022/04/17 01:00:19;;;;;;;3.10;2.80;;;;;;;;;;5027517;28;20233;-72
2022/04/17 01:02:44;;;;;;;2.57;2.37;;;;;;;;;;5028469;28;20220;-73
2022/04/17 01:05:10;;;;;;;2.70;2.50;;;;;;;;;;5043863;28;20205;-72
2022/04/17 01:07:35;;;;;;;4.50;3.20;;;;;;;;;;5029943;28;20189;-72
2022/04/17 01:10:00;;;;;;;4.33;3.40;;;;;;;;;;5025788;28;20181;-72
2022/04/17 01:12:25;;;;;;;5.30;3.10;;;;;;;;;;5028903;28;20265;-72
2022/04/17 01:14:51;;;;;;;2.93;2.70;;;;;;;;;;5025637;28;20194;-72
2022/04/17 01:17:16;;;;;;;3.77;3.03;;;;;;;;;;5030986;28;20180;-72
2022/04/17 01:19:41;;;;;;;4.00;3.17;;;;;;;;;;5027015;28;20183;-72
2022/04/17 01:22:07;;;;;;;3.60;3.27;;;;;;;;;;5026425;28;20236;-73
2022/04/17 01:27:19;;;;;;;3.80;3.20;;;;;;;;;;5027524;28;20692;-72
2022/04/17 01:29:45;;;;;;;3.43;3.00;;;;;;;;;;5038813;28;20188;-73
2022/04/17 01:32:10;;;;;;;3.00;2.70;;;;;;;;;;5025742;28;20208;-72
2022/04/17 01:34:36;;;;;;;3.53;2.70;;;;;;;;;;5044586;28;20171;-72
2022/04/17 01:37:01;;;;;;;3.93;3.10;;;;;;;;;;5027517;28;20272;-73
2022/04/17 01:39:27;;;;;;;4.60;3.73;;;;;;;;;;5023384;28;20184;-72
2022/04/17 01:41:53;;;;;;;3.77;3.13;;;;;;;;;;5035310;28;20187;-72
2022/04/17 01:44:18;;;;;;;3.23;2.90;;;;;;;;;;5020331;28;20172;-72
2022/04/17 01:46:44;;;;;;;5.07;3.43;;;;;;;;;;5024925;28;20175;-73
2022/04/17 01:49:09;;;;;;;3.70;3.40;;;;;;;;;;5021888;28;20187;-72
2022/04/17 01:51:38;;;;;;;3.93;3.53;;;;;;;;;;5036954;28;20211;-72
2022/04/17 01:54:03;;;;;;;4.30;2.93;;;;;;;;;;5017809;28;20176;-72
2022/04/17 01:56:28;;;;;;;3.70;3.27;;;;;;;;;;5019812;28;20183;-72
2022/04/17 01:58:53;;;;;;;6.77;3.43;;;;;;;;;;5021033;28;20211;-73
2022/04/17 02:01:19;;;;;;;4.83;3.87;;;;;;;;;;5022327;28;20221;-72
2022/04/17 02:03:44;;;;;;;3.53;3.23;;;;;;;;;;5036853;28;20231;-72
2022/04/17 02:06:09;;;;;;;4.33;3.30;;;;;;;;;;5021319;28;20192;-72
2022/04/17 02:08:34;;;;;;;5.00;4.03;;;;;;;;;;5015464;28;20184;-72
2022/04/17 02:11:00;;;;;;;4.80;4.03;;;;;;;;;;5021073;28;20199;-72
2022/04/17 02:13:25;;;;;;;5.13;3.80;;;;;;;;;;5022895;28;20227;-72
2022/04/17 02:15:53;;;;;;;4.00;3.13;;;;;;;;;;5035688;28;20185;-72
2022/04/17 02:18:20;;;;;;;4.50;3.90;;;;;;;;;;5030976;28;20210;-72
2022/04/17 02:20:46;;;;;;;4.83;3.63;;;;;;;;;;5020545;28;20247;-72
2022/04/17 02:23:11;;;;;;;5.23;3.87;;;;;;;;;;5026502;28;20262;-72
2022/04/17 02:25:36;;;;;;;4.73;4.10;;;;;;;;;;5022250;28;20207;-72
2022/04/17 02:28:01;;;;;;;3.93;3.53;;;;;;;;;;5018106;28;20397;-72
2022/04/17 02:30:26;;;;;;;3.53;3.23;;;;;;;;;;5018930;28;20211;-72
2022/04/17 02:32:51;;;;;;;4.43;4.03;;;;;;;;;;5021350;28;20313;-73
2022/04/17 02:35:17;;;;;;;5.50;4.40;;;;;;;;;;5016183;28;20202;-72
2022/04/17 02:37:42;;;;;;;4.90;3.63;;;;;;;;;;5037952;28;20179;-73
2022/04/17 02:40:07;;;;;;;3.77;3.27;;;;;;;;;;5027669;28;20184;-72
2022/04/17 02:42:33;;;;;;;4.00;3.70;;;;;;;;;;5037573;28;20172;-72
2022/04/17 02:44:58;;;;;;;4.40;3.67;;;;;;;;;;5018973;28;20263;-72
2022/04/17 02:50:07;;;;;;;4.33;3.93;;;;;;;;;;5016801;28;20200;-72
2022/04/17 02:52:32;;;;;;;5.80;3.87;;;;;;;;;;5028208;28;20175;-72
2022/04/17 02:54:58;;;;;;;5.20;3.67;;;;;;;;;;5020495;28;20230;-72
2022/04/17 02:57:23;;;;;;;4.43;3.70;;;;;;;;;;5028109;28;20215;-73
2022/04/17 02:59:48;;;;;;;4.20;3.80;;;;;;;;;;5034598;28;20182;-72
2022/04/17 03:07:41;;;;;;;2.93;2.70;;;;;;;;;;5020414;28;20302;-72
2022/04/17 03:10:07;;;;;;;5.43;4.10;;;;;;;;;;5020284;28;20277;-72
2022/04/17 03:12:35;;;;;;;4.20;3.27;;;;;;;;;;5041201;28;20195;-72
2022/04/17 03:15:00;;;;;;;4.60;3.93;;;;;;;;;;5016005;28;20261;-72
2022/04/17 03:17:26;;;;;;;4.13;3.73;;;;;;;;;;5027532;28;20174;-72
2022/04/17 03:19:52;;;;;;;4.40;4.00;;;;;;;;;;5043506;28;20178;-72
2022/04/17 03:22:20;;;;;;;3.47;3.17;;;;;;;;;;5021785;28;20184;-72
2022/04/17 03:24:45;;;;;;;4.70;4.30;;;;;;;;;;5039191;28;20254;-72
2022/04/17 03:27:10;;;;;;;4.67;4.17;;;;;;;;;;5018650;28;20321;-72
2022/04/17 03:29:35;;;;;;;4.57;3.90;;;;;;;;;;5028571;28;20187;-72
2022/04/17 03:32:01;;;;;;;5.13;3.83;;;;;;;;;;5033760;28;20317;-72
2022/04/17 03:34:27;;;;;;;4.30;3.80;;;;;;;;;;5021571;28;20167;-72
2022/04/17 03:36:52;;;;;;;4.23;3.80;;;;;;;;;;5040796;28;20198;-72
2022/04/17 03:39:17;;;;;;;4.10;3.67;;;;;;;;;;5021378;28;20182;-72
2022/04/17 03:41:42;;;;;;;4.57;4.17;;;;;;;;;;5038203;28;20175;-73
2022/04/17 03:44:07;;;;;;;4.30;3.80;;;;;;;;;;5023032;28;20189;-72
2022/04/17 03:46:33;;;;;;;4.30;3.90;;;;;;;;;;5024699;28;20186;-72
2022/04/17 03:48:58;;;;;;;4.43;3.63;;;;;;;;;;5026956;28;20182;-72
2022/04/17 03:51:23;;;;;;;4.73;4.27;;;;;;;;;;5039523;28;20195;-72
2022/04/17 03:53:48;;;;;;;4.57;4.10;;;;;;;;;;5021486;28;20186;-72
2022/04/17 03:56:14;;;;;;;4.40;4.00;;;;;;;;;;5022095;28;20260;-73
2022/04/17 03:58:39;;;;;;;4.33;3.93;;;;;;;;;;5016796;28;20179;-72
2022/04/17 04:01:04;;;;;;;5.10;4.00;;;;;;;;;;5016378;28;20274;-72
2022/04/17 04:03:29;;;;;;;4.07;3.67;;;;;;;;;;5025984;28;20182;-72
2022/04/17 04:05:55;;;;;;;4.70;4.20;;;;;;;;;;5030917;28;20226;-72
2022/04/17 04:08:21;;;;;;;3.87;3.47;;;;;;;;;;5027287;28;20234;-72
2022/04/17 04:10:46;;;;;;;4.80;4.33;;;;;;;;;;5018673;28;20194;-72
2022/04/17 04:13:11;;;;;;;4.10;3.80;;;;;;;;;;5025222;28;20179;-72
2022/04/17 04:15:36;;;;;;;5.33;3.87;;;;;;;;;;5021448;28;20174;-72
2022/04/17 04:18:01;;;;;;;5.13;4.17;;;;;;;;;;5024030;28;20489;-72
2022/04/17 04:20:26;;;;;;;4.27;3.80;;;;;;;;;;5019999;28;20171;-72
2022/04/17 04:22:54;;;;;;;4.60;4.07;;;;;;;;;;5039520;28;20179;-72
2022/04/17 04:25:19;;;;;;;4.40;3.60;;;;;;;;;;5022094;28;20310;-72
2022/04/17 04:30:28;;;;;;;5.20;3.83;;;;;;;;;;5017600;28;20193;-73
2022/04/17 04:32:55;;;;;;;6.40;4.17;;;;;;;;;;5017973;28;20171;-72
2022/04/17 04:35:20;;;;;;;4.50;3.90;;;;;;;;;;5021561;28;20175;-72
2022/04/17 04:37:46;;;;;;;5.87;4.30;;;;;;;;;;5024757;28;20308;-72
2022/04/17 04:40:11;;;;;;;4.40;4.00;;;;;;;;;;5023896;28;20214;-72
2022/04/17 04:42:36;;;;;;;4.77;4.27;;;;;;;;;;5034988;28;20274;-72
2022/04/17 04:47:45;;;;;;;4.90;4.23;;;;;;;;;;5022892;28;21515;-72
2022/04/17 04:50:10;;;;;;;3.80;3.50;;;;;;;;;;5025393;28;20174;-72
2022/04/17 04:52:36;;;;;;;5.20;4.07;;;;;;;;;;5036091;28;20210;-72
2022/04/17 04:55:01;;;;;;;5.50;4.13;;;;;;;;;;5023485;28;20183;-72
2022/04/17 04:57:26;;;;;;;5.37;4.27;;;;;;;;;;5028192;28;20356;-72
2022/04/17 04:59:51;;;;;;;5.95;4.28;;;;;;;;;;5025755;28;20174;-72
2022/04/17 05:02:17;;;;;;;4.70;4.30;;;;;;;;;;5025659;28;20202;-72
2022/04/17 05:04:42;;;;;;;5.27;4.60;;;;;;;;;;5025906;28;20241;-72
2022/04/17 05:07:07;;;;;;;4.77;4.27;;;;;;;;;;5024072;28;20246;-72
2022/04/17 05:09:32;;;;;;;4.55;4.15;;;;;;;;;;5021422;28;20278;-72
2022/04/17 05:11:58;;;;;;;5.20;3.65;;;;;;;;;;5025324;28;20267;-72
2022/04/17 05:14:24;;;;;;;5.57;4.00;;;;;;;;;;5013001;28;20183;-72
2022/04/17 05:16:49;;;;;;;5.13;4.63;;;;;;;;;;5026793;28;20171;-72
2022/04/17 05:19:21;;;;;;;4.27;3.83;;;;;;;;;;5023021;28;20246;-72
2022/04/17 05:21:47;;;;;;;4.90;4.20;;;;;;;;;;5024208;28;20186;-72
2022/04/17 05:24:13;;;;;;;5.50;3.83;;;;;;;;;;5024313;28;20171;-72
2022/04/17 05:26:38;;;;;;;4.60;4.20;;;;;;;;;;5022264;28;20179;-72
2022/04/17 05:29:04;;;;;;;4.97;4.47;;;;;;;;;;5021169;28;20227;-72
2022/04/17 05:31:29;;;;;;;4.37;3.97;;;;;;;;;;5028633;28;20655;-72
2022/04/17 05:33:55;;;;;;;4.80;4.10;;;;;;;;;;5040363;28;20294;-72
2022/04/17 05:36:21;;;;;;;4.77;4.07;;;;;;;;;;5021838;28;20199;-73
2022/04/17 05:38:47;;;;;;;4.97;4.10;;;;;;;;;;5041155;28;20167;-72
2022/04/17 05:41:12;;;;;;;5.80;4.30;;;;;;;;;;5030808;28;20229;-72
2022/04/17 05:43:38;;;;;;;6.77;5.03;;;;;;;;;;5027288;28;20186;-72
2022/04/17 05:46:03;;;;;;;6.10;5.27;;;;;;;;;;5018690;28;20480;-72
2022/04/17 05:48:28;;;;;;;8.07;4.83;;;;;;;;;;5025224;28;20193;-72
2022/04/17 05:50:54;;;;;;;5.07;4.43;;;;;;;;;;5020669;28;20195;-72
2022/04/17 05:53:19;;;;;;;4.87;4.37;;;;;;;;;;5020527;28;20183;-72
2022/04/17 05:55:44;;;;;;;6.40;5.80;;;;;;;;;;5013957;28;20251;-72
2022/04/17 05:58:09;;;;;;;6.93;6.33;;;;;;;;;;5028875;28;20186;-72
2022/04/17 06:00:36;;;;;;;4.77;4.20;;;;;;;;;;5021131;28;20182;-72
2022/04/17 06:03:01;;;;;;;4.73;4.23;;;;;;;;;;5028996;28;20210;-72
2022/04/17 06:05:26;;;;;;;4.33;3.87;;;;;;;;;;5021404;28;20280;-72
2022/04/17 06:07:52;;;;;;;5.50;4.87;;;;;;;;;;5030510;28;20276;-72
2022/04/17 06:10:17;;;;;;;4.43;3.93;;;;;;;;;;5019549;28;20187;-72
2022/04/17 06:12:42;;;;;;;5.50;3.77;;;;;;;;;;5021380;28;20176;-72
2022/04/17 06:15:08;;;;;;;4.37;3.97;;;;;;;;;;5041286;28;20289;-72
2022/04/17 06:17:37;;;;;;;4.60;3.93;;;;;;;;;;5029337;28;20218;-72
2022/04/17 06:20:06;;;;;;;6.07;3.90;;;;;;;;;;5027075;28;20174;-72
2022/04/17 06:22:32;;;;;;;4.10;3.70;;;;;;;;;;5025780;28;20183;-72
2022/04/17 06:24:57;;;;;;;3.90;3.53;;;;;;;;;;5020390;28;20189;-72
2022/04/17 06:27:22;;;;;;;5.37;4.53;;;;;;;;;;5038529;28;20301;-72
2022/04/17 06:29:48;;;;;;;4.27;3.87;;;;;;;;;;5022079;28;20190;-72
2022/04/17 06:32:13;;;;;;;5.50;4.40;;;;;;;;;;5030309;28;20209;-72
2022/04/17 06:34:38;;;;;;;4.30;3.90;;;;;;;;;;5035902;28;20166;-72
2022/04/17 06:37:06;;;;;;;4.05;3.65;;;;;;;;;;5021737;28;20492;-72
2022/04/17 06:39:31;;;;;;;4.20;3.80;;;;;;;;;;5022030;28;20214;-72
2022/04/17 06:41:57;;;;;;;4.50;3.93;;;;;;;;;;5038609;28;20202;-72
2022/04/17 06:44:22;;;;;;;4.87;3.70;;;;;;;;;;5024397;28;20190;-72
2022/04/17 06:46:47;;;;;;;4.63;3.43;;;;;;;;;;5021836;28;20187;-72
2022/04/17 06:49:13;;;;;;;4.30;3.90;;;;;;;;;;5020988;28;20178;-73
2022/04/17 06:51:38;;;;;;;4.87;4.00;;;;;;;;;;5022021;28;20225;-72
2022/04/17 06:54:05;;;;;;;4.55;3.33;;;;;;;;;;5014794;28;20481;-72
2022/04/17 06:56:30;;;;;;;5.10;3.60;;;;;;;;;;5014613;28;20341;-72
2022/04/17 06:58:55;;;;;;;4.50;3.80;;;;;;;;;;5022657;28;20181;-72
2022/04/17 07:01:20;;;;;;;3.73;3.40;;;;;;;;;;5040955;28;20278;-72
2022/04/17 07:03:46;;;;;;;3.80;3.40;;;;;;;;;;5019850;28;20210;-72
2022/04/17 07:06:11;;;;;;;4.93;4.43;;;;;;;;;;5024032;28;20183;-72
2022/04/17 07:08:37;;;;;;;5.10;4.17;;;;;;;;;;5024478;28;20182;-72
2022/04/17 07:11:02;;;;;;;4.67;3.40;;;;;;;;;;5038377;28;20285;-72
2022/04/17 07:13:27;;;;;;;5.30;4.13;;;;;;;;;;5018521;28;20176;-72
2022/04/17 07:15:52;;;;;;;4.33;3.33;;;;;;;;;;5039481;28;20205;-72
2022/04/17 07:18:18;;;;;;;4.43;3.83;;;;;;;;;;5023268;28;20172;-72
2022/04/17 07:20:43;;;;;;;4.23;3.80;;;;;;;;;;5039714;28;20183;-72
2022/04/17 07:23:08;;;;;;;3.87;3.57;;;;;;;;;;5017797;28;20183;-72
2022/04/17 07:25:33;;;;;;;4.70;3.63;;;;;;;;;;5032359;28;20196;-73
2022/04/17 07:27:59;;;;;;;4.17;3.50;;;;;;;;;;5022449;28;20248;-72
2022/04/17 07:30:29;;;;;;;4.13;3.57;;;;;;;;;;5020240;28;20191;-72
2022/04/17 07:32:56;;;;;;;4.10;3.60;;;;;;;;;;5022493;28;20297;-72
2022/04/17 07:35:23;;;;;;;3.67;3.20;;;;;;;;;;5013096;28;20183;-72
2022/04/17 07:37:49;;;;;;;8.70;6.47;;;;;;;;;;5022959;28;20209;-72
2022/04/17 07:40:17;;;;;;;4.57;3.70;;;;;;;;;;5035354;28;20191;-72
2022/04/17 07:42:43;;;;;;;5.60;5.00;;;;;;;;;;5023284;28;20194;-72
2022/04/17 07:45:08;;;;;;;3.97;3.67;;;;;;;;;;5021135;28;20186;-72
2022/04/17 07:47:34;;;;;;;4.17;3.43;;;;;;;;;;5014684;28;20278;-72
2022/04/17 07:49:59;;;;;;;4.17;3.60;;;;;;;;;;5017410;28;20220;-72
2022/04/17 07:52:24;;;;;;;2.93;2.70;;;;;;;;;;5027012;28;20208;-72
2022/04/17 07:54:50;;;;;;;5.10;2.90;;;;;;;;;;5034238;28;20185;-72
2022/04/17 07:57:15;;;;;;;3.27;2.80;;;;;;;;;;5022548;28;20380;-72
2022/04/17 07:59:41;;;;;;;3.30;2.83;;;;;;;;;;5033367;28;20186;-72
2022/04/17 08:02:21;;;;;;;2.67;2.43;;;;;;;;;;5021911;28;20185;-72
2022/04/17 08:04:46;;;;;;;3.63;2.50;;;;;;;;;;5023822;28;20207;-76
2022/04/17 08:07:12;;;;;;;2.47;2.27;;;;;;;;;;5040409;28;20182;-76
2022/04/17 08:09:37;;;;;;;3.37;2.23;;;;;;;;;;5021966;28;20260;-76
2022/04/17 08:12:02;;;;;;;2.40;2.10;;;;;;;;;;5025005;28;20206;-72
2022/04/17 08:14:27;;;;;;;2.53;2.33;;;;;;;;;;5024211;28;20176;-72
2022/04/17 08:16:53;;;;;;;2.40;2.07;;;;;;;;;;5021268;28;20170;-72
2022/04/17 08:19:18;;;;;;;3.20;2.30;;;;;;;;;;5020937;28;20404;-72
2022/04/17 08:21:43;;;;;;;2.22;1.83;;;;;;;;;;5018442;28;20178;-72
2022/04/17 08:24:08;;;;;;;2.73;2.37;;;;;;;;;;5033987;28;20279;-73
2022/04/17 08:26:34;;;;;;;2.30;1.77;;;;;;;;;;5023213;28;20204;-72
2022/04/17 08:28:59;;;;;;;2.00;1.67;;;;;;;;;;5023813;28;20237;-72
2022/04/17 08:31:24;;;;;;;2.70;2.50;;;;;;;;;;5020878;28;20273;-72
2022/04/17 08:33:50;;;;;;;2.67;2.45;;;;;;;;;;5011022;28;20193;-72
2022/04/17 08:36:15;;;;;;;3.03;2.80;;;;;;;;;;5021618;28;20192;-73
2022/04/17 08:38:42;;;;;;;4.50;2.80;;;;;;;;;;5022359;28;20240;-73
2022/04/17 08:41:08;;;;;;;3.00;2.70;;;;;;;;;;5021632;28;20303;-72
2022/04/17 08:43:34;;;;;;;2.67;2.47;;;;;;;;;;5035114;28;20212;-72
2022/04/17 08:45:59;;;;;;;2.30;2.10;;;;;;;;;;5041042;28;20217;-73
2022/04/17 08:48:26;;;;;;;2.80;2.53;;;;;;;;;;5017236;28;20221;-72
2022/04/17 08:50:52;;;;;;;2.57;2.37;;;;;;;;;;5021335;28;20216;-72
2022/04/17 08:53:18;;;;;;;2.63;2.40;;;;;;;;;;5018101;28;20345;-72
2022/04/17 08:55:45;;;;;;;2.37;1.93;;;;;;;;;;5022054;28;20183;-73
2022/04/17 08:58:11;;;;;;;2.70;2.50;;;;;;;;;;5022416;28;20263;-73
2022/04/17 09:00:36;;;;;;;2.47;2.27;;;;;;;;;;5021326;28;20277;-73
2022/04/17 09:03:02;;;;;;;2.50;2.30;;;;;;;;;;5022420;28;20266;-72
2022/04/17 09:05:30;;;;;;;2.67;2.47;;;;;;;;;;5043532;28;20201;-73
2022/04/17 09:07:55;;;;;;;2.47;2.27;;;;;;;;;;5021506;28;20258;-73
2022/04/17 09:10:28;;;;;;;3.77;3.47;;;;;;;;;;5043115;28;20262;-73
2022/04/17 09:12:54;;;;;;;2.80;2.60;;;;;;;;;;5027192;28;20186;-72
2022/04/17 09:15:22;;;;;;;2.37;2.17;;;;;;;;;;5022693;28;20183;-73
2022/04/17 09:17:48;;;;;;;3.87;2.33;;;;;;;;;;5035017;28;20180;-73
2022/04/17 09:20:24;;;;;;;2.03;1.60;;;;;;;;;;5025935;28;20182;-73
2022/04/17 09:22:52;;;;;;;2.40;2.20;;;;;;;;;;5025002;28;20187;-72
2022/04/17 09:25:18;;;;;;;3.33;2.27;;;;;;;;;;5021952;28;20178;-73
2022/04/17 09:27:57;;;;;;;3.37;2.07;;;;;;;;;;5038229;28;20231;-72
2022/04/17 09:30:26;;;;;;;2.00;1.80;;;;;;;;;;5030438;28;20192;-73
2022/04/17 09:32:52;;;;;;;2.07;1.83;;;;;;;;;;5026484;28;20175;-73
2022/04/17 09:35:20;;;;;;;2.63;2.20;;;;;;;;;;5021071;28;20172;-73
2022/04/17 09:37:46;;;;;;;2.20;2.00;;;;;;;;;;5026577;28;20182;-73
2022/04/17 09:40:11;;;;;;;2.20;2.00;;;;;;;;;;5027370;28;20313;-73
2022/04/17 09:42:36;;;;;;;1.73;1.63;;;;;;;;;;5041698;28;20182;-73
2022/04/17 09:45:06;;;;;;;1.73;1.63;;;;;;;;;;5040959;28;20176;-73
2022/04/17 09:47:31;;;;;;;2.57;1.87;;;;;;;;;;5039266;28;20187;-73
2022/04/17 09:50:06;;;;;;;4.37;1.80;;;;;;;;;;5023028;28;20484;-72
2022/04/17 09:52:32;;;;;;;1.90;1.80;;;;;;;;;;5023845;28;20478;-73
2022/04/17 09:54:59;;;;;;;3.67;2.10;;;;;;;;;;5031098;28;20182;-73
2022/04/17 09:57:32;;;;;;;3.53;1.90;;;;;;;;;;5025202;28;20192;-73
2022/04/17 10:00:04;;;;;;;2.27;2.07;;;;;;;;;;5018969;28;20190;-77
2022/04/17 10:02:32;;;;;;;4.33;2.13;;;;;;;;;;5028670;28;20265;-73
2022/04/17 10:04:58;;;;;;;2.73;2.00;;;;;;;;;;5035016;28;20226;-73
2022/04/17 10:07:24;;;;;;;2.50;2.00;;;;;;;;;;5025132;28;20184;-73
2022/04/17 10:09:50;;;;;;;2.03;1.77;;;;;;;;;;5027866;28;20695;-73
2022/04/17 10:12:19;;;;;;;2.00;1.80;;;;;;;;;;5036478;28;20282;-73
2022/04/17 10:14:47;;;;;;;3.30;2.10;;;;;;;;;;5024724;28;20173;-73
2022/04/17 10:17:12;;;;;;;3.07;2.00;;;;;;;;;;5021581;28;20175;-73
2022/04/17 10:19:40;;;;;;;1.90;1.80;;;;;;;;;;5043093;28;20173;-73
2022/04/17 10:22:07;;;;;;;1.97;1.80;;;;;;;;;;5025848;28;20216;-73
2022/04/17 10:24:34;;;;;;;2.40;2.20;;;;;;;;;;5033327;28;20188;-73
2022/04/17 10:27:00;;;;;;;1.63;1.53;;;;;;;;;;5023276;28;20274;-73
2022/04/17 10:29:31;;;;;;;1.63;1.53;;;;;;;;;;5018402;28;20188;-70
2022/04/17 10:32:22;;;;;;;1.43;1.33;;;;;;;;;;5023589;28;20204;-71
2022/04/17 10:34:50;;;;;;;0.90;0.90;;;;;;;;;;5016611;28;20323;-70
2022/04/17 10:37:34;;;;;;;1.30;0.97;;;;;;;;;;5021910;28;20181;-70
2022/04/17 10:39:59;;;;;;;1.37;1.27;;;;;;;;;;5025664;28;20197;-70
2022/04/17 10:42:35;;;;;;;1.67;1.57;;;;;;;;;;5024927;28;20290;-70
2022/04/17 10:45:04;;;;;;;2.03;1.87;;;;;;;;;;5019745;28;20180;-70
2022/04/17 10:47:30;;;;;;;1.70;1.60;;;;;;;;;;5017367;28;20192;-70
2022/04/17 10:50:00;;;;;;;2.50;2.00;;;;;;;;;;5018686;28;20197;-70
2022/04/17 10:52:32;;;;;;;1.87;1.77;;;;;;;;;;5024455;28;20208;-70
2022/04/17 10:55:11;;;;;;;2.10;1.90;;;;;;;;;;5019579;28;20202;-70
2022/04/17 10:57:43;;;;;;;2.87;1.90;;;;;;;;;;5024819;28;20263;-70
2022/04/17 11:00:24;;;;;;;2.23;1.93;;;;;;;;;;5022294;28;20187;-71
2022/04/17 11:02:50;;;;;;;1.93;1.83;;;;;;;;;;5020558;28;20195;-70
2022/04/17 11:05:58;;;;;;;2.43;2.23;;;;;;;;;;5022918;28;20215;-70
2022/04/17 11:08:19;;;;;;;2.37;2.17;;;;;;;;;;5024523;28;20181;-70
2022/04/17 11:10:52;;;;;;;2.50;2.03;;;;;;;;;;5021163;28;20187;-71
2022/04/17 11:13:17;;;;;;;2.40;2.20;;;;;;;;;;5026377;28;20187;-71
2022/04/17 11:15:43;;;;;;;2.13;1.93;;;;;;;;;;5032849;28;20177;-71
2022/04/17 11:18:08;;;;;;;2.10;2.00;;;;;;;;;;5040010;28;20236;-71
2022/04/17 11:20:35;;;;;;;2.53;2.33;;;;;;;;;;5030982;28;20201;-71
2022/04/17 11:23:00;;;;;;;2.30;1.73;;;;;;;;;;5017326;28;20189;-70
2022/04/17 11:25:28;;;;;;;2.40;2.20;;;;;;;;;;5019349;28;20175;-70
2022/04/17 11:27:53;;;;;;;2.23;2.03;;;;;;;;;;5018838;28;20289;-70
2022/04/17 11:30:19;;;;;;;2.30;1.93;;;;;;;;;;5016044;28;20175;-71
2022/04/17 11:32:48;;;;;;;3.35;2.10;;;;;;;;;;5038581;28;20212;-70
2022/04/17 11:35:14;;;;;;;2.57;1.80;;;;;;;;;;5019863;28;20343;-70
2022/04/17 11:37:48;;;;;;;1.47;1.37;;;;;;;;;;5020319;28;20190;-70
2022/04/17 11:40:14;;;;;;;5.13;2.20;;;;;;;;;;5021277;28;20180;-71
2022/04/17 11:42:49;;;;;;;1.87;1.40;;;;;;;;;;5018292;28;20194;-71
2022/04/17 11:45:16;;;;;;;1.80;1.70;;;;;;;;;;5022451;28;20185;-71
2022/04/17 11:47:42;;;;;;;2.37;2.10;;;;;;;;;;5023178;28;20180;-70
2022/04/17 11:50:09;;;;;;;2.83;1.80;;;;;;;;;;5019133;28;20186;-71
2022/04/17 11:52:34;;;;;;;2.53;2.00;;;;;;;;;;5035481;28;20217;-70
2022/04/17 11:54:59;;;;;;;2.13;1.33;;;;;;;;;;5021059;28;20179;-70
2022/04/17 11:57:24;;;;;;;7.00;1.80;;;;;;;;;;5020045;28;20199;-70
2022/04/17 11:59:50;;;;;;;1.97;1.87;;;;;;;;;;5028245;28;20173;-70
2022/04/17 12:02:17;;;;;;;1.80;1.70;;;;;;;;;;5018811;28;20210;-71
2022/04/17 12:04:42;;;;;;;1.73;1.60;;;;;;;;;;5037703;28;20201;-71
2022/04/17 12:07:09;;;;;;;1.77;1.67;;;;;;;;;;5017236;28;20214;-71
2022/04/17 12:09:34;;;;;;;0.73;0.73;;;;;;;;;;5039930;28;20180;-70
2022/04/17 12:11:59;;;;;;;1.60;1.50;;;;;;;;;;5024541;28;20262;-70
2022/04/17 12:14:28;;;;;;;2.70;1.77;;;;;;;;;;5043239;28;20241;-71
2022/04/17 12:16:53;;;;;;;2.00;1.57;;;;;;;;;;5033954;28;20222;-71
2022/04/17 12:19:18;;;;;;;2.00;1.80;;;;;;;;;;5026698;28;20176;-71
2022/04/17 12:21:43;;;;;;;3.42;1.80;;;;;;;;;;5026400;28;20251;-71
2022/04/17 12:24:09;;;;;;;1.87;1.60;;;;;;;;;;5016842;28;20194;-71
2022/04/17 12:26:34;;;;;;;2.23;1.67;;;;;;;;;;5036401;28;20183;-70
2022/04/17 12:28:59;;;;;;;5.33;1.70;;;;;;;;;;5031397;28;20246;-71
2022/04/17 12:31:24;;;;;;;1.43;1.33;;;;;;;;;;5028379;28;20575;-71
2022/04/17 12:33:49;;;;;;;1.43;1.33;;;;;;;;;;5025774;28;20184;-70
2022/04/17 12:36:19;;;;;;;3.03;1.70;;;;;;;;;;5032898;28;20180;-71
2022/04/17 12:38:54;;;;;;;3.77;1.80;;;;;;;;;;5042134;28;20190;-71
2022/04/17 12:41:20;;;;;;;2.17;1.50;;;;;;;;;;5041052;28;20182;-71
2022/04/17 12:43:46;;;;;;;3.10;1.60;;;;;;;;;;5033960;28;20182;-71
2022/04/17 12:46:21;;;;;;;1.73;1.60;;;;;;;;;;5033219;28;20290;-71
2022/04/17 12:48:47;;;;;;;2.17;1.50;;;;;;;;;;5028484;28;20184;-70
2022/04/17 12:51:12;;;;;;;1.73;1.60;;;;;;;;;;5034390;28;20211;-71
2022/04/17 12:53:42;;;;;;;2.13;1.80;;;;;;;;;;5041526;28;20307;-71
2022/04/17 12:56:08;;;;;;;1.50;1.40;;;;;;;;;;5029713;28;20183;-70
2022/04/17 12:58:49;;;;;;;2.70;1.80;;;;;;;;;;5030523;28;20188;-71
2022/04/17 13:01:25;;;;;;;1.63;1.53;;;;;;;;;;5028696;28;20180;-71
2022/04/17 13:03:50;;;;;;;2.27;1.77;;;;;;;;;;5032284;28;20231;-71
2022/04/17 13:06:22;;;;;;;1.60;1.50;;;;;;;;;;5027109;28;20181;-71
2022/04/17 13:09:03;;;;;;;1.60;1.50;;;;;;;;;;5046783;28;20181;-71
2022/04/17 13:11:29;;;;;;;2.57;1.70;;;;;;;;;;5022859;28;20288;-71
2022/04/17 13:13:59;;;;;;;6.00;1.90;;;;;;;;;;5024623;28;20261;-71
2022/04/17 13:16:24;;;;;;;7.17;2.00;;;;;;;;;;5035242;28;20181;-71
2022/04/17 13:18:52;;;;;;;1.90;1.50;;;;;;;;;;5029459;28;20296;-71
2022/04/17 13:21:17;;;;;;;2.37;1.73;;;;;;;;;;5025066;28;20175;-71
2022/04/17 13:23:43;;;;;;;4.47;2.37;;;;;;;;;;5029128;28;20192;-71
2022/04/17 13:26:08;;;;;;;2.93;1.50;;;;;;;;;;5023815;28;20175;-71
2022/04/17 13:28:36;;;;;;;1.37;1.27;;;;;;;;;;5027350;28;20239;-71
2022/04/17 13:31:02;;;;;;;1.60;1.50;;;;;;;;;;5020607;28;20217;-71
2022/04/17 13:33:27;;;;;;;3.50;2.10;;;;;;;;;;5028922;28;20184;-71
2022/04/17 13:35:53;;;;;;;1.97;1.77;;;;;;;;;;5023283;28;20178;-71
2022/04/17 13:38:18;;;;;;;3.87;1.70;;;;;;;;;;5027075;28;20182;-71
2022/04/17 13:40:43;;;;;;;1.87;1.50;;;;;;;;;;5029243;28;20190;-71
2022/04/17 13:43:08;;;;;;;1.73;1.63;;;;;;;;;;5033973;28;20169;-71
2022/04/17 13:45:34;;;;;;;1.73;1.63;;;;;;;;;;5036960;28;20194;-71
2022/04/17 13:47:59;;;;;;;2.60;2.00;;;;;;;;;;5029527;28;20183;-71
2022/04/17 13:50:25;;;;;;;1.83;1.70;;;;;;;;;;5023104;28;20176;-71
2022/04/17 13:52:51;;;;;;;2.97;1.50;;;;;;;;;;5025637;28;20213;-71
2022/04/17 13:55:19;;;;;;;1.60;1.50;;;;;;;;;;5025815;28;20189;-71
2022/04/17 13:57:45;;;;;;;1.77;1.10;;;;;;;;;;5039266;28;20185;-71
2022/04/17 14:00:11;;;;;;;1.77;1.60;;;;;;;;;;5024529;28;20182;-71
2022/04/17 14:02:36;;;;;;;1.63;1.53;;;;;;;;;;5032107;28;20187;-71
2022/04/17 14:05:03;;;;;;;2.77;1.80;;;;;;;;;;5023228;28;20208;-71
2022/04/17 14:07:28;;;;;;;2.27;1.60;;;;;;;;;;5024321;28;20214;-71
2022/04/17 14:09:53;;;;;;;2.27;1.40;;;;;;;;;;5021679;28;20188;-71
2022/04/17 14:12:18;;;;;;;2.27;1.80;;;;;;;;;;5022075;28;20204;-71
2022/04/17 14:14:44;;;;;;;3.20;1.53;;;;;;;;;;5029983;28;20225;-71
2022/04/17 14:17:09;;;;;;;1.73;1.43;;;;;;;;;;5032795;28;20175;-71
2022/04/17 14:19:35;;;;;;;3.40;1.70;;;;;;;;;;5030299;28;20183;-71
2022/04/17 14:22:00;;;;;;;2.43;2.23;;;;;;;;;;5036394;28;20290;-71
2022/04/17 14:24:25;;;;;;;1.50;1.40;;;;;;;;;;5023797;28;20191;-71
2022/04/17 14:26:51;;;;;;;1.80;1.57;;;;;;;;;;5027539;28;20179;-71
2022/04/17 14:29:16;;;;;;;5.70;1.43;;;;;;;;;;5037533;28;20239;-71
2022/04/17 14:31:41;;;;;;;1.50;1.40;;;;;;;;;;5027107;28;20199;-71
2022/04/17 14:34:08;;;;;;;1.60;1.50;;;;;;;;;;5024327;28;20176;-71
2022/04/17 14:36:33;;;;;;;1.50;1.40;;;;;;;;;;5020992;28;20180;-71
2022/04/17 14:38:59;;;;;;;2.27;2.17;;;;;;;;;;5033619;28;20175;-71
2022/04/17 14:41:24;;;;;;;2.73;1.87;;;;;;;;;;5022675;28;20210;-71
2022/04/17 14:43:49;;;;;;;2.00;1.47;;;;;;;;;;5032952;28;20195;-71
2022/04/17 14:46:15;;;;;;;1.50;1.40;;;;;;;;;;5018079;28;20189;-71
2022/04/17 14:48:41;;;;;;;1.60;1.30;;;;;;;;;;5020821;28;20201;-71
2022/04/17 14:51:06;;;;;;;2.60;1.50;;;;;;;;;;5026847;28;20217;-71
2022/04/17 14:53:32;;;;;;;1.57;1.37;;;;;;;;;;5037898;28;20186;-71
2022/04/17 14:55:57;;;;;;;1.30;1.20;;;;;;;;;;5029850;28;20211;-71